createdAt,value
2023-03-24T00:01:11.494Z,101314.50
2023-03-24T00:06:13.292Z,101352.47
2023-03-24T00:11:11.845Z,101334.84
2023-03-24T00:16:12.050Z,101346.06
2023-03-24T00:21:10.982Z,101287.81
2023-03-24T00:26:11.832Z,101329.44
2023-03-24T00:31:10.397Z,101325.97
2023-03-24T00:36:11.397Z,101303.34
2023-03-24T00:41:10.015Z,101286.13
2023-03-24T00:46:10.848Z,101259.00
2023-03-24T00:51:10.260Z,101301.41
2023-03-24T00:56:08.525Z,101267.38
2023-03-24T01:01:06.529Z,101314.56
2023-03-24T01:06:04.649Z,101309.19
2023-03-24T01:11:04.146Z,101242.69
2023-03-24T01:16:01.295Z,101327.66
2023-03-24T01:20:58.712Z,101292.03
2023-03-24T01:25:55.523Z,101312.28
2023-03-24T01:30:54.083Z,101248.19
2023-03-24T01:35:51.054Z,101270.28
2023-03-24T01:40:48.217Z,101306.38
2023-03-24T01:46:13.031Z,101279.94
2023-03-24T01:51:14.997Z,101333.34
2023-03-24T01:56:13.157Z,101345.38
2023-03-24T02:01:13.889Z,101322.22
2023-03-24T02:06:34.699Z,101293.53
2023-03-24T02:11:35.566Z,101285.31
2023-03-24T02:16:49.388Z,101277.19
2023-03-24T02:22:28.664Z,101294.13
2023-03-24T02:27:45.530Z,101263.22
2023-03-24T02:33:06.470Z,101208.13
2023-03-24T02:38:24.497Z,101252.34
2023-03-24T02:43:33.223Z,101255.69
2023-03-24T02:48:37.202Z,101222.50
2023-03-24T02:53:43.231Z,101245.22
2023-03-24T02:58:58.161Z,101211.47
2023-03-24T03:03:59.163Z,101274.16
2023-03-24T03:08:59.828Z,101264.28
2023-03-24T03:14:02.213Z,101262.00
2023-03-24T03:19:02.986Z,101296.13
2023-03-24T03:24:06.236Z,101234.94
2023-03-24T03:29:11.416Z,101232.94
2023-03-24T03:34:17.271Z,101220.50
2023-03-24T03:39:19.238Z,101275.69
2023-03-24T03:44:17.149Z,101287.75
2023-03-24T03:49:14.315Z,101244.25
2023-03-24T03:54:14.194Z,101307.66
2023-03-24T03:59:24.402Z,101288.19
2023-03-24T04:04:53.255Z,101293.34
2023-03-24T04:10:21.049Z,101259.72
2023-03-24T04:15:43.480Z,101336.75
2023-03-24T04:21:15.497Z,101339.56
2023-03-24T04:26:25.646Z,101301.41
2023-03-24T04:31:29.435Z,101344.06
2023-03-24T04:36:33.863Z,101212.91
2023-03-24T04:41:52.556Z,101334.22
2023-03-24T04:47:02.065Z,101293.00
2023-03-24T04:51:59.387Z,101280.72
2023-03-24T04:57:01.106Z,101344.78
2023-03-24T05:02:00.943Z,101338.69
2023-03-24T05:07:01.104Z,101342.38
2023-03-24T05:11:59.276Z,101354.97
2023-03-24T05:17:01.458Z,101354.84
2023-03-24T05:21:59.214Z,101275.00
2023-03-24T05:26:59.578Z,101323.53
2023-03-24T05:32:08.805Z,101304.09
2023-03-24T05:37:13.701Z,101294.28
2023-03-24T05:42:15.674Z,101334.31
2023-03-24T05:47:21.364Z,101302.81
2023-03-24T05:52:22.064Z,101252.97
2023-03-24T05:57:21.147Z,101322.09
2023-03-24T06:02:39.300Z,101345.16
2023-03-24T06:07:51.897Z,101341.22
2023-03-24T06:12:50.438Z,101328.03
2023-03-24T06:17:49.552Z,101358.00
2023-03-24T06:23:03.009Z,101353.72
2023-03-24T06:28:13.697Z,101362.09
2023-03-24T06:33:13.387Z,101377.31
2023-03-24T06:38:13.808Z,101351.72
2023-03-24T06:43:11.731Z,101302.16
2023-03-24T06:48:11.975Z,101368.03
2023-03-24T06:53:09.316Z,101371.97
2023-03-24T06:58:08.174Z,101356.66
2023-03-24T07:03:26.453Z,101350.03
2023-03-24T07:08:46.384Z,101293.69
2023-03-24T07:13:44.063Z,101335.72
2023-03-24T07:18:41.581Z,101351.13
2023-03-24T07:23:43.572Z,101350.41
2023-03-24T07:28:44.557Z,101333.63
2023-03-24T07:33:43.351Z,101346.06
2023-03-24T07:38:40.346Z,101350.44
2023-03-24T07:43:41.979Z,101302.44
2023-03-24T07:49:01.281Z,101333.09
2023-03-24T07:54:05.995Z,101344.78
2023-03-24T07:59:09.877Z,101316.00
2023-03-24T08:04:31.930Z,101303.63
2023-03-24T08:09:51.958Z,101333.63
2023-03-24T08:14:48.750Z,101321.19
2023-03-24T08:19:59.113Z,101291.06
2023-03-24T08:25:03.398Z,101313.91
2023-03-24T08:30:00.434Z,101324.44
2023-03-24T08:34:58.490Z,101296.53
2023-03-24T08:40:00.207Z,101317.38
2023-03-24T08:44:58.038Z,101244.09
2023-03-24T08:50:12.217Z,101274.66
2023-03-24T08:55:23.646Z,101291.13
2023-03-24T09:00:22.291Z,101311.66
2023-03-24T09:05:32.869Z,101230.13
2023-03-24T09:10:34.153Z,101300.34
2023-03-24T09:15:35.542Z,101295.16
2023-03-24T09:20:33.461Z,101270.03
2023-03-24T09:25:32.564Z,101257.47
2023-03-24T09:30:30.992Z,101290.94
2023-03-24T09:35:29.224Z,101247.09
2023-03-24T09:40:29.299Z,101276.66
2023-03-24T09:45:28.883Z,101225.94
2023-03-24T09:50:28.869Z,101260.03
2023-03-24T09:55:28.842Z,101243.59
2023-03-24T10:00:28.790Z,101261.19
2023-03-24T10:05:31.107Z,101260.88
2023-03-24T10:10:35.089Z,101250.91
2023-03-24T10:15:38.577Z,101226.00
2023-03-24T10:20:44.090Z,101172.31
2023-03-24T10:25:51.248Z,101182.41
2023-03-24T10:30:50.370Z,101234.47
2023-03-24T10:35:55.613Z,101203.94
2023-03-24T10:40:54.511Z,101184.38
2023-03-24T10:45:53.563Z,101215.50
2023-03-24T10:50:51.535Z,101209.41
2023-03-24T10:55:50.137Z,101202.56
2023-03-24T11:00:48.968Z,101189.56
2023-03-24T11:05:46.483Z,101188.56
2023-03-24T11:10:46.633Z,101174.25
2023-03-24T11:15:55.191Z,101137.16
2023-03-24T11:21:35.091Z,101163.06
2023-03-24T11:26:36.272Z,101161.09
2023-03-24T11:31:40.182Z,101139.06
2023-03-24T11:37:05.041Z,101130.91
2023-03-24T11:42:06.222Z,101111.44
2023-03-24T11:47:13.051Z,101057.72
2023-03-24T11:52:20.056Z,101101.31
2023-03-24T11:57:28.790Z,101057.84
2023-03-24T12:02:48.017Z,101073.31
2023-03-24T12:08:11.347Z,101104.28
2023-03-24T12:13:22.182Z,101053.81
2023-03-24T12:18:58.120Z,101077.66
2023-03-24T12:23:58.726Z,101059.78
2023-03-24T12:29:05.361Z,101071.38
2023-03-24T12:34:15.481Z,101040.50
2023-03-24T12:39:16.658Z,101083.31
2023-03-24T12:44:50.725Z,101048.25
2023-03-24T12:50:00.691Z,101048.38
2023-03-24T12:55:04.022Z,101059.34
2023-03-24T13:00:08.782Z,101046.56
2023-03-24T13:05:18.641Z,101024.91
2023-03-24T13:10:19.876Z,101031.25
2023-03-24T13:15:21.014Z,101006.47
2023-03-24T13:20:26.724Z,101019.34
2023-03-24T13:25:33.147Z,100974.44
2023-03-24T13:36:15.141Z,100983.72
2023-03-24T13:41:23.501Z,100971.72
2023-03-24T13:46:20.807Z,100990.41
2023-03-24T13:51:27.961Z,100949.84
2023-03-24T13:56:31.317Z,100947.28
2023-03-24T14:01:34.296Z,100853.78
2023-03-24T14:06:46.575Z,100972.91
2023-03-24T14:11:48.959Z,100876.72
2023-03-24T14:17:02.072Z,100957.78
2023-03-24T14:22:11.340Z,100938.19
2023-03-24T14:27:34.157Z,100951.13
2023-03-24T14:32:38.656Z,100898.97
2023-03-24T14:37:47.810Z,100944.97
2023-03-24T14:43:05.514Z,100921.53
2023-03-24T14:48:06.196Z,100927.50
2023-03-24T14:53:04.309Z,100845.66
2023-03-24T14:58:11.720Z,100870.53
2023-03-24T15:03:18.920Z,100885.41
2023-03-24T15:08:20.923Z,100893.88
2023-03-24T15:13:41.182Z,100928.31
2023-03-24T15:18:57.673Z,100837.34
2023-03-24T15:24:00.486Z,100916.56
2023-03-24T15:28:59.956Z,100926.72
2023-03-24T15:34:08.493Z,100871.22
2023-03-24T15:39:20.363Z,100903.47
2023-03-24T15:44:20.871Z,100904.06
2023-03-24T15:49:25.576Z,100843.06
2023-03-24T15:54:25.729Z,100931.63
2023-03-24T15:59:25.136Z,100928.25
2023-03-24T16:04:24.965Z,100916.19
2023-03-24T16:09:26.753Z,100895.34
2023-03-24T16:14:26.099Z,100927.03
2023-03-24T16:19:23.470Z,100862.41
2023-03-24T16:24:20.650Z,100888.38
2023-03-24T16:29:19.650Z,100928.03
2023-03-24T16:34:18.121Z,100853.09
2023-03-24T16:39:16.469Z,100828.25
2023-03-24T16:44:13.965Z,100916.88
2023-03-24T16:49:14.839Z,100911.78
2023-03-24T16:54:11.850Z,100913.91
2023-03-24T16:59:09.946Z,100882.66
2023-03-24T17:04:09.160Z,100926.59
2023-03-24T17:09:07.617Z,100811.94
2023-03-24T17:14:07.894Z,100811.88
2023-03-24T17:19:05.126Z,100893.25
2023-03-24T17:24:03.189Z,100896.69
2023-03-24T17:29:06.913Z,100918.59
2023-03-24T17:34:15.199Z,100920.28
2023-03-24T17:39:19.837Z,100877.34
2023-03-24T17:44:17.875Z,100786.81
2023-03-24T17:49:23.233Z,100796.72
2023-03-24T17:54:33.318Z,100918.19
2023-03-24T17:59:31.125Z,100889.38
2023-03-24T18:04:28.605Z,100907.25
2023-03-24T18:09:31.601Z,100891.78
2023-03-24T18:14:31.408Z,100927.94
2023-03-24T18:19:35.877Z,100911.59
2023-03-24T18:24:54.163Z,100929.88
2023-03-24T18:29:55.991Z,100908.59
2023-03-24T18:35:05.366Z,100884.53
2023-03-24T18:40:09.169Z,100914.66
2023-03-24T18:45:08.304Z,100879.09
2023-03-24T18:50:09.860Z,100921.66
2023-03-24T18:55:20.343Z,100890.94
2023-03-24T19:00:19.766Z,100918.25
2023-03-24T19:05:18.932Z,100881.03
2023-03-24T19:10:21.369Z,100907.28
2023-03-24T19:15:25.109Z,100911.25
2023-03-24T19:20:24.318Z,100881.75
2023-03-24T19:25:24.329Z,100908.69
2023-03-24T19:30:25.999Z,100887.50
2023-03-24T19:35:23.207Z,100859.59
2023-03-24T19:40:23.018Z,100908.41
2023-03-24T19:45:20.788Z,100895.47
2023-03-24T19:50:18.764Z,100891.72
2023-03-24T19:55:16.137Z,100821.94
2023-03-24T20:00:16.322Z,100845.75
2023-03-24T20:05:14.087Z,100847.56
2023-03-24T20:10:13.086Z,100867.25
2023-03-24T20:15:10.840Z,100807.91
2023-03-24T20:20:12.946Z,100812.97
2023-03-24T20:25:12.030Z,100826.97
2023-03-24T20:30:10.326Z,100858.53
2023-03-24T20:35:12.291Z,100853.06
2023-03-24T20:40:10.328Z,100855.03
2023-03-24T20:45:10.537Z,100847.16
2023-03-24T20:50:08.842Z,100747.28
2023-03-24T20:55:08.310Z,100840.75
2023-03-24T21:00:13.368Z,100826.06
2023-03-24T21:05:11.406Z,100817.09
2023-03-24T21:10:09.243Z,100813.19
2023-03-24T21:15:07.691Z,100830.47
2023-03-24T21:20:08.387Z,100825.59
2023-03-24T21:25:07.006Z,100771.06
2023-03-24T21:30:04.822Z,100823.81
2023-03-24T21:35:01.760Z,100762.19
2023-03-24T21:40:01.998Z,100771.41
2023-03-24T21:44:59.643Z,100755.63
2023-03-24T21:49:58.489Z,100810.56
2023-03-24T21:54:57.554Z,100828.47
2023-03-24T21:59:54.541Z,100834.00
2023-03-24T22:04:52.209Z,100779.78
2023-03-24T22:09:50.060Z,100822.25
2023-03-24T22:14:47.169Z,100828.72
2023-03-24T22:19:44.166Z,100797.88
2023-03-24T22:24:41.687Z,100828.09
2023-03-24T22:29:39.895Z,100822.56
2023-03-24T22:34:36.722Z,100779.56
2023-03-24T22:39:33.839Z,100818.13
2023-03-24T22:44:31.410Z,100763.75
2023-03-24T22:49:28.759Z,100821.72
2023-03-24T22:54:26.311Z,100764.69
2023-03-24T22:59:24.042Z,100807.59
2023-03-24T23:04:21.584Z,100791.41
2023-03-24T23:09:18.556Z,100781.47
2023-03-24T23:14:17.757Z,100773.09
2023-03-24T23:19:14.725Z,100739.91
2023-03-24T23:24:12.363Z,100762.81
2023-03-24T23:29:09.219Z,100781.47
2023-03-24T23:34:06.951Z,100773.50
2023-03-24T23:39:04.214Z,100755.88
2023-03-24T23:44:01.956Z,100791.91
2023-03-24T23:48:58.913Z,100722.19
2023-03-24T23:53:55.752Z,100787.56
2023-03-24T23:58:52.631Z,100762.03
